sensor_id;sensor_type;location;lat;lon;timestamp;temperature;humidity
16767;DHT22;8501;49.926;8.404;2024-01-27T00:01:05;6.60;99.90
16767;DHT22;8501;49.926;8.404;2024-01-27T00:03:30;6.60;99.90
16767;DHT22;8501;49.926;8.404;2024-01-27T00:05:56;6.60;99.90
16767;DHT22;8501;49.926;8.404;2024-01-27T00:08:21;6.70;99.90
16767;DHT22;8501;49.926;8.404;2024-01-27T00:10:47;6.70;99.90
16767;DHT22;8501;49.926;8.404;2024-01-27T00:13:13;6.60;99.90
16767;DHT22;8501;49.926;8.404;2024-01-27T00:15:38;6.60;99.90
16767;DHT22;8501;49.926;8.404;2024-01-27T00:18:04;6.50;99.90
16767;DHT22;8501;49.926;8.404;2024-01-27T00:20:29;6.40;99.90
16767;DHT22;8501;49.926;8.404;2024-01-27T00:22:55;6.40;99.90
16767;DHT22;8501;49.926;8.404;2024-01-27T00:25:20;6.40;99.90
16767;DHT22;8501;49.926;8.404;2024-01-27T00:27:46;6.30;99.90
16767;DHT22;8501;49.926;8.404;2024-01-27T00:30:12;6.30;99.90
16767;DHT22;8501;49.926;8.404;2024-01-27T00:32:38;6.40;99.90
16767;DHT22;8501;49.926;8.404;2024-01-27T00:35:03;6.40;99.90
16767;DHT22;8501;49.926;8.404;2024-01-27T00:37:29;6.40;99.90
16767;DHT22;8501;49.926;8.404;2024-01-27T00:39:54;6.40;99.90
16767;DHT22;8501;49.926;8.404;2024-01-27T00:42:20;6.40;99.90
16767;DHT22;8501;49.926;8.404;2024-01-27T00:44:49;6.30;99.90
16767;DHT22;8501;49.926;8.404;2024-01-27T00:47:15;6.30;99.90
16767;DHT22;8501;49.926;8.404;2024-01-27T00:49:41;6.30;99.90
16767;DHT22;8501;49.926;8.404;2024-01-27T00:52:06;6.30;99.90
16767;DHT22;8501;49.926;8.404;2024-01-27T00:54:32;6.20;99.90
16767;DHT22;8501;49.926;8.404;2024-01-27T00:56:57;6.20;99.90
16767;DHT22;8501;49.926;8.404;2024-01-27T00:59:23;6.20;99.90
16767;DHT22;8501;49.926;8.404;2024-01-27T01:01:48;6.20;99.90
16767;DHT22;8501;49.926;8.404;2024-01-27T01:04:14;6.10;99.90
16767;DHT22;8501;49.926;8.404;2024-01-27T01:06:40;6.10;99.90
16767;DHT22;8501;49.926;8.404;2024-01-27T01:09:06;6.10;99.90
16767;DHT22;8501;49.926;8.404;2024-01-27T01:11:32;6.10;99.90
16767;DHT22;8501;49.926;8.404;2024-01-27T01:13:57;6.20;99.90
16767;DHT22;8501;49.926;8.404;2024-01-27T01:16:23;6.20;99.90
16767;DHT22;8501;49.926;8.404;2024-01-27T01:18:48;6.20;99.90
16767;DHT22;8501;49.926;8.404;2024-01-27T01:21:14;6.20;99.90
16767;DHT22;8501;49.926;8.404;2024-01-27T01:23:39;6.10;99.90
16767;DHT22;8501;49.926;8.404;2024-01-27T01:26:05;6.00;99.90
16767;DHT22;8501;49.926;8.404;2024-01-27T01:28:30;5.90;99.90
16767;DHT22;8501;49.926;8.404;2024-01-27T01:30:57;5.80;99.90
16767;DHT22;8501;49.926;8.404;2024-01-27T01:33:23;5.70;99.90
16767;DHT22;8501;49.926;8.404;2024-01-27T01:35:48;5.70;99.90
16767;DHT22;8501;49.926;8.404;2024-01-27T01:38:14;5.60;99.90
16767;DHT22;8501;49.926;8.404;2024-01-27T01:40:40;5.60;99.90
16767;DHT22;8501;49.926;8.404;2024-01-27T01:43:10;5.70;99.90
16767;DHT22;8501;49.926;8.404;2024-01-27T01:45:37;5.70;99.90
16767;DHT22;8501;49.926;8.404;2024-01-27T01:48:02;5.70;99.90
16767;DHT22;8501;49.926;8.404;2024-01-27T01:50:29;5.70;99.90
16767;DHT22;8501;49.926;8.404;2024-01-27T01:52:55;5.80;99.90
16767;DHT22;8501;49.926;8.404;2024-01-27T01:55:21;5.70;99.90
16767;DHT22;8501;49.926;8.404;2024-01-27T01:57:46;5.80;99.90
16767;DHT22;8501;49.926;8.404;2024-01-27T02:00:14;5.80;99.90
16767;DHT22;8501;49.926;8.404;2024-01-27T02:02:40;5.80;99.90
16767;DHT22;8501;49.926;8.404;2024-01-27T02:05:05;5.70;99.90
16767;DHT22;8501;49.926;8.404;2024-01-27T02:07:31;5.70;99.90
16767;DHT22;8501;49.926;8.404;2024-01-27T02:09:56;5.60;99.90
16767;DHT22;8501;49.926;8.404;2024-01-27T02:12:22;5.60;99.90
16767;DHT22;8501;49.926;8.404;2024-01-27T02:14:48;5.40;99.90
16767;DHT22;8501;49.926;8.404;2024-01-27T02:17:13;5.40;99.90
16767;DHT22;8501;49.926;8.404;2024-01-27T02:19:39;5.40;99.90
16767;DHT22;8501;49.926;8.404;2024-01-27T02:22:04;5.30;99.90
16767;DHT22;8501;49.926;8.404;2024-01-27T02:24:30;5.30;99.90
16767;DHT22;8501;49.926;8.404;2024-01-27T02:26:55;5.30;99.90
16767;DHT22;8501;49.926;8.404;2024-01-27T02:29:21;5.30;99.90
16767;DHT22;8501;49.926;8.404;2024-01-27T02:31:47;5.30;99.90
16767;DHT22;8501;49.926;8.404;2024-01-27T02:34:12;5.20;99.90
16767;DHT22;8501;49.926;8.404;2024-01-27T02:36:38;5.20;99.90
16767;DHT22;8501;49.926;8.404;2024-01-27T02:39:03;5.20;99.90
16767;DHT22;8501;49.926;8.404;2024-01-27T02:41:29;5.10;99.90
16767;DHT22;8501;49.926;8.404;2024-01-27T02:43:54;5.00;99.90
16767;DHT22;8501;49.926;8.404;2024-01-27T02:46:20;4.90;99.90
16767;DHT22;8501;49.926;8.404;2024-01-27T02:48:45;4.90;99.90
16767;DHT22;8501;49.926;8.404;2024-01-27T02:51:11;5.00;99.90
16767;DHT22;8501;49.926;8.404;2024-01-27T02:53:37;4.90;99.90
16767;DHT22;8501;49.926;8.404;2024-01-27T02:56:02;4.90;99.90
16767;DHT22;8501;49.926;8.404;2024-01-27T02:58:31;4.80;99.90
16767;DHT22;8501;49.926;8.404;2024-01-27T03:00:56;4.80;99.90
16767;DHT22;8501;49.926;8.404;2024-01-27T03:03:22;4.90;99.90
16767;DHT22;8501;49.926;8.404;2024-01-27T03:05:47;4.90;99.90
16767;DHT22;8501;49.926;8.404;2024-01-27T03:08:13;4.80;99.90
16767;DHT22;8501;49.926;8.404;2024-01-27T03:10:38;4.80;99.90
16767;DHT22;8501;49.926;8.404;2024-01-27T03:13:04;4.90;99.90
16767;DHT22;8501;49.926;8.404;2024-01-27T03:15:29;4.90;99.90
16767;DHT22;8501;49.926;8.404;2024-01-27T03:17:55;4.90;99.90
16767;DHT22;8501;49.926;8.404;2024-01-27T03:20:21;4.90;99.90
16767;DHT22;8501;49.926;8.404;2024-01-27T03:22:47;4.80;99.90
16767;DHT22;8501;49.926;8.404;2024-01-27T03:25:13;4.60;99.90
16767;DHT22;8501;49.926;8.404;2024-01-27T03:27:39;4.60;99.90
16767;DHT22;8501;49.926;8.404;2024-01-27T03:30:05;4.60;99.90
16767;DHT22;8501;49.926;8.404;2024-01-27T03:32:31;4.50;99.90
16767;DHT22;8501;49.926;8.404;2024-01-27T03:35:00;4.30;99.90
16767;DHT22;8501;49.926;8.404;2024-01-27T03:37:25;4.20;99.90
16767;DHT22;8501;49.926;8.404;2024-01-27T03:39:51;4.20;99.90
16767;DHT22;8501;49.926;8.404;2024-01-27T03:42:16;4.10;99.90
16767;DHT22;8501;49.926;8.404;2024-01-27T03:44:42;4.20;99.90
16767;DHT22;8501;49.926;8.404;2024-01-27T03:47:07;4.20;99.90
16767;DHT22;8501;49.926;8.404;2024-01-27T03:49:35;4.10;99.90
16767;DHT22;8501;49.926;8.404;2024-01-27T03:52:01;4.10;99.90
16767;DHT22;8501;49.926;8.404;2024-01-27T03:54:26;4.00;99.90
16767;DHT22;8501;49.926;8.404;2024-01-27T03:56:52;3.90;99.90
16767;DHT22;8501;49.926;8.404;2024-01-27T03:59:17;3.90;99.90
16767;DHT22;8501;49.926;8.404;2024-01-27T04:01:43;3.90;99.90
16767;DHT22;8501;49.926;8.404;2024-01-27T04:04:09;4.00;99.90
16767;DHT22;8501;49.926;8.404;2024-01-27T04:06:38;4.00;99.90
16767;DHT22;8501;49.926;8.404;2024-01-27T04:09:05;4.00;99.90
16767;DHT22;8501;49.926;8.404;2024-01-27T04:11:34;3.90;99.90
16767;DHT22;8501;49.926;8.404;2024-01-27T04:13:59;3.80;99.90
16767;DHT22;8501;49.926;8.404;2024-01-27T04:16:25;3.80;99.90
16767;DHT22;8501;49.926;8.404;2024-01-27T04:18:50;3.70;99.90
16767;DHT22;8501;49.926;8.404;2024-01-27T04:21:16;3.70;99.90
16767;DHT22;8501;49.926;8.404;2024-01-27T04:23:41;3.60;99.90
16767;DHT22;8501;49.926;8.404;2024-01-27T04:26:07;3.60;99.90
16767;DHT22;8501;49.926;8.404;2024-01-27T04:28:34;3.70;99.90
16767;DHT22;8501;49.926;8.404;2024-01-27T04:31:00;3.70;99.90
16767;DHT22;8501;49.926;8.404;2024-01-27T04:33:25;3.80;99.90
16767;DHT22;8501;49.926;8.404;2024-01-27T04:35:51;3.70;99.90
16767;DHT22;8501;49.926;8.404;2024-01-27T04:38:17;3.60;99.90
16767;DHT22;8501;49.926;8.404;2024-01-27T04:40:42;3.60;99.90
16767;DHT22;8501;49.926;8.404;2024-01-27T04:43:08;3.70;99.90
16767;DHT22;8501;49.926;8.404;2024-01-27T04:45:33;3.80;99.90
16767;DHT22;8501;49.926;8.404;2024-01-27T04:47:59;3.80;99.90
16767;DHT22;8501;49.926;8.404;2024-01-27T04:50:26;3.80;99.90
16767;DHT22;8501;49.926;8.404;2024-01-27T04:52:52;3.90;99.90
16767;DHT22;8501;49.926;8.404;2024-01-27T04:55:18;3.80;99.90
16767;DHT22;8501;49.926;8.404;2024-01-27T04:57:43;3.90;99.90
16767;DHT22;8501;49.926;8.404;2024-01-27T05:00:09;3.80;99.90
16767;DHT22;8501;49.926;8.404;2024-01-27T05:02:39;3.90;99.90
16767;DHT22;8501;49.926;8.404;2024-01-27T05:05:06;3.80;99.90
16767;DHT22;8501;49.926;8.404;2024-01-27T05:07:32;3.80;99.90
16767;DHT22;8501;49.926;8.404;2024-01-27T05:09:57;3.80;99.90
16767;DHT22;8501;49.926;8.404;2024-01-27T05:12:23;3.70;99.90
16767;DHT22;8501;49.926;8.404;2024-01-27T05:14:48;3.70;99.90
16767;DHT22;8501;49.926;8.404;2024-01-27T05:17:14;3.50;99.90
16767;DHT22;8501;49.926;8.404;2024-01-27T05:19:39;3.40;99.90
16767;DHT22;8501;49.926;8.404;2024-01-27T05:22:05;3.50;99.90
16767;DHT22;8501;49.926;8.404;2024-01-27T05:24:30;3.60;99.90
16767;DHT22;8501;49.926;8.404;2024-01-27T05:26:56;3.60;99.90
16767;DHT22;8501;49.926;8.404;2024-01-27T05:29:22;3.50;99.90
16767;DHT22;8501;49.926;8.404;2024-01-27T05:31:47;3.60;99.90
16767;DHT22;8501;49.926;8.404;2024-01-27T05:34:16;3.60;99.90
16767;DHT22;8501;49.926;8.404;2024-01-27T05:36:41;3.50;99.90
16767;DHT22;8501;49.926;8.404;2024-01-27T05:39:07;3.40;99.90
16767;DHT22;8501;49.926;8.404;2024-01-27T05:41:32;3.30;99.90
16767;DHT22;8501;49.926;8.404;2024-01-27T05:43:58;3.30;99.90
16767;DHT22;8501;49.926;8.404;2024-01-27T05:46:24;3.30;99.90
16767;DHT22;8501;49.926;8.404;2024-01-27T05:48:50;3.30;99.90
16767;DHT22;8501;49.926;8.404;2024-01-27T05:51:19;3.30;99.90
16767;DHT22;8501;49.926;8.404;2024-01-27T05:53:44;3.30;99.90
16767;DHT22;8501;49.926;8.404;2024-01-27T05:56:10;3.30;99.90
16767;DHT22;8501;49.926;8.404;2024-01-27T05:58:36;3.20;99.90
16767;DHT22;8501;49.926;8.404;2024-01-27T06:01:02;3.20;99.90
16767;DHT22;8501;49.926;8.404;2024-01-27T06:03:28;3.20;99.90
16767;DHT22;8501;49.926;8.404;2024-01-27T06:05:53;3.20;99.90
16767;DHT22;8501;49.926;8.404;2024-01-27T06:08:19;3.10;99.90
16767;DHT22;8501;49.926;8.404;2024-01-27T06:10:45;3.00;99.90
16767;DHT22;8501;49.926;8.404;2024-01-27T06:13:11;3.00;99.90
16767;DHT22;8501;49.926;8.404;2024-01-27T06:15:37;2.90;99.90
16767;DHT22;8501;49.926;8.404;2024-01-27T06:18:03;2.90;99.90
16767;DHT22;8501;49.926;8.404;2024-01-27T06:20:28;2.90;99.90
16767;DHT22;8501;49.926;8.404;2024-01-27T06:22:54;2.90;99.90
16767;DHT22;8501;49.926;8.404;2024-01-27T06:25:20;2.90;99.90
16767;DHT22;8501;49.926;8.404;2024-01-27T06:27:46;2.80;99.90
16767;DHT22;8501;49.926;8.404;2024-01-27T06:30:12;2.80;99.90
16767;DHT22;8501;49.926;8.404;2024-01-27T06:32:38;2.80;99.90
16767;DHT22;8501;49.926;8.404;2024-01-27T06:35:03;2.70;99.90
16767;DHT22;8501;49.926;8.404;2024-01-27T06:37:29;2.70;99.90
16767;DHT22;8501;49.926;8.404;2024-01-27T06:39:55;2.70;99.90
16767;DHT22;8501;49.926;8.404;2024-01-27T06:42:20;2.70;99.90
16767;DHT22;8501;49.926;8.404;2024-01-27T06:44:46;2.60;99.90
16767;DHT22;8501;49.926;8.404;2024-01-27T06:47:11;2.60;99.90
16767;DHT22;8501;49.926;8.404;2024-01-27T06:49:37;2.60;99.90
16767;DHT22;8501;49.926;8.404;2024-01-27T06:52:04;2.70;99.90
16767;DHT22;8501;49.926;8.404;2024-01-27T06:54:29;2.70;99.90
16767;DHT22;8501;49.926;8.404;2024-01-27T06:56:55;2.80;99.90
16767;DHT22;8501;49.926;8.404;2024-01-27T06:59:20;2.80;99.90
16767;DHT22;8501;49.926;8.404;2024-01-27T07:01:49;2.70;99.90
16767;DHT22;8501;49.926;8.404;2024-01-27T07:04:15;2.60;99.90
16767;DHT22;8501;49.926;8.404;2024-01-27T07:06:40;2.60;99.90
16767;DHT22;8501;49.926;8.404;2024-01-27T07:09:06;2.60;99.90
16767;DHT22;8501;49.926;8.404;2024-01-27T07:11:37;2.70;99.90
16767;DHT22;8501;49.926;8.404;2024-01-27T07:14:03;2.60;99.90
16767;DHT22;8501;49.926;8.404;2024-01-27T07:16:29;2.60;99.90
16767;DHT22;8501;49.926;8.404;2024-01-27T07:18:54;2.50;99.90
16767;DHT22;8501;49.926;8.404;2024-01-27T07:21:20;2.50;99.90
16767;DHT22;8501;49.926;8.404;2024-01-27T07:23:46;2.50;99.90
16767;DHT22;8501;49.926;8.404;2024-01-27T07:26:11;2.60;99.90
16767;DHT22;8501;49.926;8.404;2024-01-27T07:28:37;2.60;99.90
16767;DHT22;8501;49.926;8.404;2024-01-27T07:31:03;2.60;99.90
16767;DHT22;8501;49.926;8.404;2024-01-27T07:33:29;2.60;99.90
16767;DHT22;8501;49.926;8.404;2024-01-27T07:35:54;2.60;99.90
16767;DHT22;8501;49.926;8.404;2024-01-27T07:38:20;2.50;99.90
16767;DHT22;8501;49.926;8.404;2024-01-27T07:40:46;2.50;99.90
16767;DHT22;8501;49.926;8.404;2024-01-27T07:43:11;2.50;99.90
16767;DHT22;8501;49.926;8.404;2024-01-27T07:45:37;2.50;99.90
16767;DHT22;8501;49.926;8.404;2024-01-27T07:48:02;2.50;99.90
16767;DHT22;8501;49.926;8.404;2024-01-27T07:50:28;2.50;99.90
16767;DHT22;8501;49.926;8.404;2024-01-27T07:52:54;2.50;99.90
16767;DHT22;8501;49.926;8.404;2024-01-27T07:55:19;2.60;99.90
16767;DHT22;8501;49.926;8.404;2024-01-27T07:57:45;2.70;99.90
16767;DHT22;8501;49.926;8.404;2024-01-27T08:00:11;2.70;99.90
16767;DHT22;8501;49.926;8.404;2024-01-27T08:02:36;2.80;99.90
16767;DHT22;8501;49.926;8.404;2024-01-27T08:05:03;2.90;99.90
16767;DHT22;8501;49.926;8.404;2024-01-27T08:07:29;2.80;99.90
16767;DHT22;8501;49.926;8.404;2024-01-27T08:09:55;2.70;99.90
16767;DHT22;8501;49.926;8.404;2024-01-27T08:12:22;2.70;99.90
16767;DHT22;8501;49.926;8.404;2024-01-27T08:14:47;2.80;99.90
16767;DHT22;8501;49.926;8.404;2024-01-27T08:17:13;2.80;99.90
16767;DHT22;8501;49.926;8.404;2024-01-27T08:19:39;2.90;99.90
16767;DHT22;8501;49.926;8.404;2024-01-27T08:22:04;2.90;99.90
16767;DHT22;8501;49.926;8.404;2024-01-27T08:24:30;2.90;99.90
16767;DHT22;8501;49.926;8.404;2024-01-27T08:26:56;2.90;99.90
16767;DHT22;8501;49.926;8.404;2024-01-27T08:29:22;2.90;99.90
16767;DHT22;8501;49.926;8.404;2024-01-27T08:31:47;2.90;99.90
16767;DHT22;8501;49.926;8.404;2024-01-27T08:34:13;3.00;99.90
16767;DHT22;8501;49.926;8.404;2024-01-27T08:36:39;3.10;99.90
16767;DHT22;8501;49.926;8.404;2024-01-27T08:39:05;3.20;99.90
16767;DHT22;8501;49.926;8.404;2024-01-27T08:41:32;3.30;99.90
16767;DHT22;8501;49.926;8.404;2024-01-27T08:43:58;3.40;99.90
16767;DHT22;8501;49.926;8.404;2024-01-27T08:46:24;3.50;99.90
16767;DHT22;8501;49.926;8.404;2024-01-27T08:48:49;3.40;99.90
16767;DHT22;8501;49.926;8.404;2024-01-27T08:51:15;3.40;99.90
16767;DHT22;8501;49.926;8.404;2024-01-27T08:53:42;3.60;99.90
16767;DHT22;8501;49.926;8.404;2024-01-27T08:56:16;3.60;99.90
16767;DHT22;8501;49.926;8.404;2024-01-27T08:58:44;3.60;99.90
16767;DHT22;8501;49.926;8.404;2024-01-27T09:01:10;3.60;99.90
16767;DHT22;8501;49.926;8.404;2024-01-27T09:03:38;3.70;99.90
16767;DHT22;8501;49.926;8.404;2024-01-27T09:06:04;3.70;99.90
16767;DHT22;8501;49.926;8.404;2024-01-27T09:10:58;3.80;99.90
16767;DHT22;8501;49.926;8.404;2024-01-27T09:13:23;3.80;99.90
16767;DHT22;8501;49.926;8.404;2024-01-27T09:15:49;4.00;99.90
16767;DHT22;8501;49.926;8.404;2024-01-27T09:18:14;4.00;99.90
16767;DHT22;8501;49.926;8.404;2024-01-27T09:20:41;4.10;99.90
16767;DHT22;8501;49.926;8.404;2024-01-27T09:23:06;4.20;99.90
16767;DHT22;8501;49.926;8.404;2024-01-27T09:25:32;4.20;99.90
16767;DHT22;8501;49.926;8.404;2024-01-27T09:27:57;4.20;99.90
16767;DHT22;8501;49.926;8.404;2024-01-27T09:30:26;4.20;99.90
16767;DHT22;8501;49.926;8.404;2024-01-27T09:32:52;4.20;99.90
16767;DHT22;8501;49.926;8.404;2024-01-27T09:35:17;4.30;99.90
16767;DHT22;8501;49.926;8.404;2024-01-27T09:37:43;4.30;99.90
16767;DHT22;8501;49.926;8.404;2024-01-27T09:40:11;4.40;99.90
16767;DHT22;8501;49.926;8.404;2024-01-27T09:42:38;4.40;99.90
16767;DHT22;8501;49.926;8.404;2024-01-27T09:45:05;4.40;99.90
16767;DHT22;8501;49.926;8.404;2024-01-27T09:47:30;4.50;99.90
16767;DHT22;8501;49.926;8.404;2024-01-27T09:49:56;4.60;99.90
16767;DHT22;8501;49.926;8.404;2024-01-27T09:52:22;4.60;99.90
16767;DHT22;8501;49.926;8.404;2024-01-27T09:54:48;4.70;99.90
16767;DHT22;8501;49.926;8.404;2024-01-27T09:57:14;4.80;99.90
16767;DHT22;8501;49.926;8.404;2024-01-27T09:59:43;4.80;99.90
16767;DHT22;8501;49.926;8.404;2024-01-27T10:02:11;4.80;99.90
16767;DHT22;8501;49.926;8.404;2024-01-27T10:04:41;4.80;99.90
16767;DHT22;8501;49.926;8.404;2024-01-27T10:07:06;4.90;99.90
16767;DHT22;8501;49.926;8.404;2024-01-27T10:09:32;4.90;99.90
16767;DHT22;8501;49.926;8.404;2024-01-27T10:12:01;4.80;99.90
16767;DHT22;8501;49.926;8.404;2024-01-27T10:14:40;4.80;99.90
16767;DHT22;8501;49.926;8.404;2024-01-27T10:17:10;4.90;99.90
16767;DHT22;8501;49.926;8.404;2024-01-27T10:19:35;5.00;99.90
16767;DHT22;8501;49.926;8.404;2024-01-27T10:22:01;5.10;99.90
16767;DHT22;8501;49.926;8.404;2024-01-27T10:24:31;5.10;99.90
16767;DHT22;8501;49.926;8.404;2024-01-27T10:27:01;5.10;99.90
16767;DHT22;8501;49.926;8.404;2024-01-27T10:29:27;5.10;99.90
16767;DHT22;8501;49.926;8.404;2024-01-27T10:31:53;5.30;99.90
16767;DHT22;8501;49.926;8.404;2024-01-27T10:34:21;5.30;99.90
16767;DHT22;8501;49.926;8.404;2024-01-27T10:36:47;5.40;99.90
16767;DHT22;8501;49.926;8.404;2024-01-27T10:39:16;5.30;99.90
16767;DHT22;8501;49.926;8.404;2024-01-27T10:41:45;5.40;99.90
16767;DHT22;8501;49.926;8.404;2024-01-27T10:44:14;5.40;99.90
16767;DHT22;8501;49.926;8.404;2024-01-27T10:46:43;5.50;99.90
16767;DHT22;8501;49.926;8.404;2024-01-27T10:49:12;5.50;99.90
16767;DHT22;8501;49.926;8.404;2024-01-27T10:52:13;5.50;99.90
16767;DHT22;8501;49.926;8.404;2024-01-27T10:54:33;5.60;99.90
16767;DHT22;8501;49.926;8.404;2024-01-27T10:56:58;5.60;99.90
16767;DHT22;8501;49.926;8.404;2024-01-27T10:59:27;5.60;99.90
16767;DHT22;8501;49.926;8.404;2024-01-27T11:01:54;5.70;99.90
16767;DHT22;8501;49.926;8.404;2024-01-27T11:04:20;5.80;99.90
16767;DHT22;8501;49.926;8.404;2024-01-27T11:06:49;5.80;99.90
16767;DHT22;8501;49.926;8.404;2024-01-27T11:09:17;5.80;99.90
16767;DHT22;8501;49.926;8.404;2024-01-27T11:11:43;5.80;99.90
16767;DHT22;8501;49.926;8.404;2024-01-27T11:14:10;5.70;99.90
16767;DHT22;8501;49.926;8.404;2024-01-27T11:16:36;5.90;99.90
16767;DHT22;8501;49.926;8.404;2024-01-27T11:19:10;5.90;99.90
16767;DHT22;8501;49.926;8.404;2024-01-27T11:21:36;5.80;99.90
16767;DHT22;8501;49.926;8.404;2024-01-27T11:24:12;6.10;99.90
16767;DHT22;8501;49.926;8.404;2024-01-27T11:26:38;6.10;99.90
16767;DHT22;8501;49.926;8.404;2024-01-27T11:29:07;6.20;99.90
16767;DHT22;8501;49.926;8.404;2024-01-27T11:31:34;6.30;99.90
16767;DHT22;8501;49.926;8.404;2024-01-27T11:34:00;6.20;99.90
16767;DHT22;8501;49.926;8.404;2024-01-27T11:36:25;6.20;99.90
16767;DHT22;8501;49.926;8.404;2024-01-27T11:38:53;6.20;99.90
16767;DHT22;8501;49.926;8.404;2024-01-27T11:41:28;6.30;99.90
16767;DHT22;8501;49.926;8.404;2024-01-27T11:43:56;6.20;99.90
16767;DHT22;8501;49.926;8.404;2024-01-27T11:46:22;6.30;99.90
16767;DHT22;8501;49.926;8.404;2024-01-27T11:48:48;6.40;99.90
16767;DHT22;8501;49.926;8.404;2024-01-27T11:51:14;6.50;99.90
16767;DHT22;8501;49.926;8.404;2024-01-27T11:53:40;6.60;99.90
16767;DHT22;8501;49.926;8.404;2024-01-27T11:56:06;6.60;99.90
16767;DHT22;8501;49.926;8.404;2024-01-27T11:58:32;6.60;99.90
16767;DHT22;8501;49.926;8.404;2024-01-27T12:00:58;6.60;99.90
16767;DHT22;8501;49.926;8.404;2024-01-27T12:03:24;6.70;99.90
16767;DHT22;8501;49.926;8.404;2024-01-27T12:05:50;6.70;99.90
16767;DHT22;8501;49.926;8.404;2024-01-27T12:08:17;6.80;99.90
16767;DHT22;8501;49.926;8.404;2024-01-27T12:10:42;6.80;99.90
16767;DHT22;8501;49.926;8.404;2024-01-27T12:13:08;6.90;99.90
16767;DHT22;8501;49.926;8.404;2024-01-27T12:15:34;6.80;99.90
16767;DHT22;8501;49.926;8.404;2024-01-27T12:17:59;6.80;99.90
16767;DHT22;8501;49.926;8.404;2024-01-27T12:20:25;6.90;99.90
16767;DHT22;8501;49.926;8.404;2024-01-27T12:23:02;6.80;99.90
16767;DHT22;8501;49.926;8.404;2024-01-27T12:25:28;6.90;99.90
16767;DHT22;8501;49.926;8.404;2024-01-27T12:27:53;7.00;99.90
16767;DHT22;8501;49.926;8.404;2024-01-27T12:30:21;7.10;99.90
16767;DHT22;8501;49.926;8.404;2024-01-27T12:32:47;7.10;99.90
16767;DHT22;8501;49.926;8.404;2024-01-27T12:35:13;7.20;99.90
16767;DHT22;8501;49.926;8.404;2024-01-27T12:37:38;7.20;99.90
16767;DHT22;8501;49.926;8.404;2024-01-27T12:40:20;7.20;99.90
16767;DHT22;8501;49.926;8.404;2024-01-27T12:42:47;7.30;99.90
16767;DHT22;8501;49.926;8.404;2024-01-27T12:45:13;7.30;99.90
16767;DHT22;8501;49.926;8.404;2024-01-27T12:47:39;7.20;99.90
16767;DHT22;8501;49.926;8.404;2024-01-27T12:50:06;7.20;99.90
16767;DHT22;8501;49.926;8.404;2024-01-27T12:52:32;7.20;99.90
16767;DHT22;8501;49.926;8.404;2024-01-27T12:54:58;7.20;99.90
16767;DHT22;8501;49.926;8.404;2024-01-27T12:57:24;7.30;99.90
16767;DHT22;8501;49.926;8.404;2024-01-27T12:59:50;7.30;99.90
16767;DHT22;8501;49.926;8.404;2024-01-27T13:02:16;7.30;99.90
16767;DHT22;8501;49.926;8.404;2024-01-27T13:04:42;7.40;99.90
16767;DHT22;8501;49.926;8.404;2024-01-27T13:07:07;7.50;99.90
16767;DHT22;8501;49.926;8.404;2024-01-27T13:09:34;7.60;99.90
16767;DHT22;8501;49.926;8.404;2024-01-27T13:12:00;7.60;99.90
16767;DHT22;8501;49.926;8.404;2024-01-27T13:14:26;7.50;99.90
16767;DHT22;8501;49.926;8.404;2024-01-27T13:16:52;7.50;99.90
16767;DHT22;8501;49.926;8.404;2024-01-27T13:19:20;7.70;99.90
16767;DHT22;8501;49.926;8.404;2024-01-27T13:21:47;7.70;99.90
16767;DHT22;8501;49.926;8.404;2024-01-27T13:24:12;7.70;99.90
16767;DHT22;8501;49.926;8.404;2024-01-27T13:26:38;7.80;99.90
16767;DHT22;8501;49.926;8.404;2024-01-27T13:29:04;7.80;99.90
16767;DHT22;8501;49.926;8.404;2024-01-27T13:31:30;7.80;99.90
16767;DHT22;8501;49.926;8.404;2024-01-27T13:33:56;7.80;99.90
16767;DHT22;8501;49.926;8.404;2024-01-27T13:36:22;7.70;99.90
16767;DHT22;8501;49.926;8.404;2024-01-27T13:38:48;7.70;99.90
16767;DHT22;8501;49.926;8.404;2024-01-27T13:41:14;7.80;99.90
16767;DHT22;8501;49.926;8.404;2024-01-27T13:43:40;7.80;99.90
16767;DHT22;8501;49.926;8.404;2024-01-27T13:46:06;7.70;99.90
16767;DHT22;8501;49.926;8.404;2024-01-27T13:48:32;7.70;99.90
16767;DHT22;8501;49.926;8.404;2024-01-27T13:50:57;7.70;99.90
16767;DHT22;8501;49.926;8.404;2024-01-27T13:53:23;7.80;99.90
16767;DHT22;8501;49.926;8.404;2024-01-27T13:55:49;7.80;99.90
16767;DHT22;8501;49.926;8.404;2024-01-27T13:58:15;7.70;99.90
16767;DHT22;8501;49.926;8.404;2024-01-27T14:00:40;7.70;99.90
16767;DHT22;8501;49.926;8.404;2024-01-27T14:03:06;7.60;99.90
16767;DHT22;8501;49.926;8.404;2024-01-27T14:05:34;7.70;99.90
16767;DHT22;8501;49.926;8.404;2024-01-27T14:08:00;7.60;99.90
16767;DHT22;8501;49.926;8.404;2024-01-27T14:10:26;7.70;99.90
16767;DHT22;8501;49.926;8.404;2024-01-27T14:12:51;7.70;99.90
16767;DHT22;8501;49.926;8.404;2024-01-27T14:15:17;7.70;99.90
16767;DHT22;8501;49.926;8.404;2024-01-27T14:17:43;7.70;99.90
16767;DHT22;8501;49.926;8.404;2024-01-27T14:20:09;7.80;99.90
16767;DHT22;8501;49.926;8.404;2024-01-27T14:22:35;7.80;99.90
16767;DHT22;8501;49.926;8.404;2024-01-27T14:25:01;7.80;99.90
16767;DHT22;8501;49.926;8.404;2024-01-27T14:27:27;7.80;99.90
16767;DHT22;8501;49.926;8.404;2024-01-27T14:29:53;7.80;99.90
16767;DHT22;8501;49.926;8.404;2024-01-27T14:32:19;7.80;99.90
16767;DHT22;8501;49.926;8.404;2024-01-27T14:34:45;7.70;99.90
16767;DHT22;8501;49.926;8.404;2024-01-27T14:37:11;7.80;99.90
16767;DHT22;8501;49.926;8.404;2024-01-27T14:39:36;7.80;99.90
16767;DHT22;8501;49.926;8.404;2024-01-27T14:42:02;7.80;99.90
16767;DHT22;8501;49.926;8.404;2024-01-27T14:44:33;7.80;99.90
16767;DHT22;8501;49.926;8.404;2024-01-27T14:46:58;7.80;99.90
16767;DHT22;8501;49.926;8.404;2024-01-27T14:49:24;7.80;99.90
16767;DHT22;8501;49.926;8.404;2024-01-27T14:51:50;7.80;99.90
16767;DHT22;8501;49.926;8.404;2024-01-27T14:54:17;7.80;99.90
16767;DHT22;8501;49.926;8.404;2024-01-27T14:56:42;7.70;99.90
16767;DHT22;8501;49.926;8.404;2024-01-27T14:59:08;7.80;99.90
16767;DHT22;8501;49.926;8.404;2024-01-27T15:01:33;7.80;99.90
16767;DHT22;8501;49.926;8.404;2024-01-27T15:03:59;7.80;99.90
16767;DHT22;8501;49.926;8.404;2024-01-27T15:06:28;7.90;99.90
16767;DHT22;8501;49.926;8.404;2024-01-27T15:08:53;7.80;99.90
16767;DHT22;8501;49.926;8.404;2024-01-27T15:11:19;8.00;99.90
16767;DHT22;8501;49.926;8.404;2024-01-27T15:13:44;8.70;99.90
16767;DHT22;8501;49.926;8.404;2024-01-27T15:16:10;9.70;99.90
16767;DHT22;8501;49.926;8.404;2024-01-27T15:18:36;10.30;99.90
16767;DHT22;8501;49.926;8.404;2024-01-27T15:21:06;10.50;99.90
16767;DHT22;8501;49.926;8.404;2024-01-27T15:23:32;10.50;99.90
16767;DHT22;8501;49.926;8.404;2024-01-27T15:25:59;10.50;99.90
16767;DHT22;8501;49.926;8.404;2024-01-27T15:28:27;10.60;99.90
16767;DHT22;8501;49.926;8.404;2024-01-27T15:30:52;10.70;99.90
16767;DHT22;8501;49.926;8.404;2024-01-27T15:33:18;10.70;99.90
16767;DHT22;8501;49.926;8.404;2024-01-27T15:35:44;10.40;99.90
16767;DHT22;8501;49.926;8.404;2024-01-27T15:38:10;9.90;99.90
16767;DHT22;8501;49.926;8.404;2024-01-27T15:40:36;9.40;99.90
16767;DHT22;8501;49.926;8.404;2024-01-27T15:43:02;9.00;99.90
16767;DHT22;8501;49.926;8.404;2024-01-27T15:45:27;8.60;99.90
16767;DHT22;8501;49.926;8.404;2024-01-27T15:47:53;8.30;99.90
16767;DHT22;8501;49.926;8.404;2024-01-27T15:50:21;8.00;99.90
16767;DHT22;8501;49.926;8.404;2024-01-27T15:52:54;7.90;99.90
16767;DHT22;8501;49.926;8.404;2024-01-27T15:55:21;7.80;99.90
16767;DHT22;8501;49.926;8.404;2024-01-27T15:57:46;7.70;99.90